Map

Track Data

SID SEASON NUMBER BASIN SUBBASIN NAME ISO_TIME NATURE LAT LON WMO_WIND WMO_PRES WMO_AGENCY TRACK_TYPE DIST2LAND LANDFALL IFLAG USA_AGENCY USA_ATCF_ID USA_LAT USA_LON USA_RECORD USA_STATUS USA_WIND USA_PRES USA_SSHS USA_R34_NE USA_R34_SE USA_R34_SW USA_R34_NW USA_R50_NE USA_R50_SE USA_R50_SW USA_R50_NW USA_R64_NE USA_R64_SE USA_R64_SW USA_R64_NW USA_POCI USA_ROCI USA_RMW USA_EYE TOKYO_LAT TOKYO_LON TOKYO_GRADE TOKYO_WIND TOKYO_PRES TOKYO_R50_DIR TOKYO_R50_LONG TOKYO_R50_SHORT TOKYO_R30_DIR TOKYO_R30_LONG TOKYO_R30_SHORT TOKYO_LAND CMA_LAT CMA_LON CMA_CAT CMA_WIND CMA_PRES HKO_LAT HKO_LON HKO_CAT HKO_WIND HKO_PRES NEWDELHI_LAT NEWDELHI_LON NEWDELHI_GRADE NEWDELHI_WIND NEWDELHI_PRES NEWDELHI_CI NEWDELHI_DP NEWDELHI_POCI REUNION_LAT REUNION_LON REUNION_TYPE REUNION_WIND REUNION_PRES REUNION_TNUM REUNION_CI REUNION_RMW REUNION_R34_NE REUNION_R34_SE REUNION_R34_SW REUNION_R34_NW REUNION_R50_NE REUNION_R50_SE REUNION_R50_SW REUNION_R50_NW REUNION_R64_NE REUNION_R64_SE REUNION_R64_SW REUNION_R64_NW BOM_LAT BOM_LON BOM_TYPE BOM_WIND BOM_PRES BOM_TNUM BOM_CI BOM_RMW BOM_R34_NE BOM_R34_SE BOM_R34_SW BOM_R34_NW BOM_R50_NE BOM_R50_SE BOM_R50_SW BOM_R50_NW BOM_R64_NE BOM_R64_SE BOM_R64_SW BOM_R64_NW BOM_ROCI BOM_POCI BOM_EYE BOM_POS_METHOD BOM_PRES_METHOD NADI_LAT NADI_LON NADI_CAT NADI_WIND NADI_PRES WELLINGTON_LAT WELLINGTON_LON WELLINGTON_WIND WELLINGTON_PRES DS824_LAT DS824_LON DS824_STAGE DS824_WIND DS824_PRES TD9636_LAT TD9636_LON TD9636_STAGE TD9636_WIND TD9636_PRES TD9635_LAT TD9635_LON TD9635_WIND TD9635_PRES TD9635_ROCI NEUMANN_LAT NEUMANN_LON NEUMANN_CLASS NEUMANN_WIND NEUMANN_PRES MLC_LAT MLC_LON MLC_CLASS MLC_WIND MLC_PRES USA_GUST BOM_GUST BOM_GUST_PER REUNION_GUST REUNION_GUST_PER USA_SEAHGT USA_SEARAD_NE USA_SEARAD_SE USA_SEARAD_SW USA_SEARAD_NW STORM_SPEED STORM_DIR
1970255N25283 1970 113 NA NA FELICE 1970-09-12 00:00:00 TS 25.4000 -77.5000 25 hurdat_atl main 60 52 O_____________ hurdat_atl AL131970 25.4000 -77.5000 TD 25 -1 2 268
1970255N25283 1970 113 NA NA FELICE 1970-09-12 03:00:00 TS 25.3975 -77.5900 main 52 45 P_____________ AL131970 25.3975 -77.5900 TD 25 -1 2 270
1970255N25283 1970 113 NA NA FELICE 1970-09-12 06:00:00 TS 25.4000 -77.7000 25 hurdat_atl main 45 39 O_____________ hurdat_atl AL131970 25.4000 -77.7000 TD 25 -1 2 273
1970255N25283 1970 113 NA NA FELICE 1970-09-12 09:00:00 TS 25.4075 -77.8425 main 39 33 P_____________ AL131970 25.4075 -77.8425 TD 25 -1 3 270
1970255N25283 1970 113 NA NA FELICE 1970-09-12 12:00:00 TS 25.4000 -78.0000 25 hurdat_atl main 33 33 O_____________ hurdat_atl AL131970 25.4000 -78.0000 TD 25 -1 3 259
1970255N25283 1970 113 NA NA FELICE 1970-09-12 15:00:00 TS 25.3500 -78.1575 main 34 24 P_____________ AL131970 25.3500 -78.1575 TD 25 -1 3 250
1970255N25283 1970 113 NA NA FELICE 1970-09-12 18:00:00 TS 25.3000 -78.3000 25 hurdat_atl main 30 30 O_____________ hurdat_atl AL131970 25.3000 -78.3000 TD 25 -1 2 256
1970255N25283 1970 113 NA NA FELICE 1970-09-12 21:00:00 TS 25.2999 -78.3774 main 37 37 P_____________ AL131970 25.2999 -78.3774 TD 25 -1 2 270
1970255N25283 1970 113 NA NA FELICE 1970-09-13 00:00:00 TS 25.3000 -78.5000 25 hurdat_atl main 46 46 O_____________ hurdat_atl AL131970 25.3000 -78.5000 TD 25 -1 3 264
1970255N25283 1970 113 NA NA FELICE 1970-09-13 03:00:00 TS 25.2649 -78.7474 main 64 64 P_____________ AL131970 25.2649 -78.7474 TD 25 -1 6 260
1970255N25283 1970 113 NA NA FELICE 1970-09-13 06:00:00 TS 25.2000 -79.1000 25 hurdat_atl main 90 90 O_____________ hurdat_atl AL131970 25.2000 -79.1000 TD 25 -1 7 257
1970255N25283 1970 113 NA NA FELICE 1970-09-13 09:00:00 TS 25.1075 -79.5200 main 90 41 P_____________ AL131970 25.1075 -79.5200 TD 25 -1 8 256
1970255N25283 1970 113 NA NA FELICE 1970-09-13 12:00:00 TS 25.0000 -80.0000 25 hurdat_atl main 41 15 O_____________ hurdat_atl AL131970 25.0000 -80.0000 TD 25 -1 9 258
1970255N25283 1970 113 NA NA FELICE 1970-09-13 15:00:00 TS 24.9149 -80.4923 main 24 22 P_____________ AL131970 24.9149 -80.4923 TD 27 -1 9 258
1970255N25283 1970 113 NA NA FELICE 1970-09-13 18:00:00 TS 24.8000 -81.0000 30 hurdat_atl main 35 33 O_____________ hurdat_atl AL131970 24.8000 -81.0000 TD 30 -1 10 251
1970255N25283 1970 113 NA NA FELICE 1970-09-13 21:00:00 TS 24.5998 -81.5002 main 68 68 P_____________ AL131970 24.5998 -81.5002 TD 30 -1 10 246
1970255N25283 1970 113 NA NA FELICE 1970-09-14 00:00:00 TS 24.4000 -82.0000 30 1011 hurdat_atl main 119 119 O_____________ hurdat_atl AL131970 24.4000 -82.0000 TD 30 1011 -1 10 249
1970255N25283 1970 113 NA NA FELICE 1970-09-14 03:00:00 TS 24.2473 -82.4927 main 122 122 P_____________ AL131970 24.2473 -82.4927 TD 30 1010 -1 9 258
1970255N25283 1970 113 NA GM FELICE 1970-09-14 06:00:00 TS 24.2000 -83.0000 30 1010 hurdat_atl main 133 133 O_____________ hurdat_atl AL131970 24.2000 -83.0000 TD 30 1010 -1 10 271
1970255N25283 1970 113 NA GM FELICE 1970-09-14 09:00:00 TS 24.2673 -83.5353 main 156 156 P_____________ AL131970 24.2673 -83.5353 TD 30 1009 -1 10 287
1970255N25283 1970 113 NA GM FELICE 1970-09-14 12:00:00 TS 24.5000 -84.1000 30 hurdat_atl main 192 192 I_____________ hurdat_atl AL131970 24.5000 -84.1000 TD 30 1009 -1 12 301
1970255N25283 1970 113 NA GM FELICE 1970-09-14 15:00:00 TS 24.8973 -84.6850 main 255 255 P_____________ AL131970 24.8973 -84.6850 TD 32 1008 -1 14 310
1970255N25283 1970 113 NA GM FELICE 1970-09-14 18:00:00 TS 25.4000 -85.3000 35 1008 hurdat_atl main 329 329 O_____________ hurdat_atl AL131970 25.4000 -85.3000 TS 35 1008 0 15 312
1970255N25283 1970 113 NA GM FELICE 1970-09-14 21:00:00 TS 25.9067 -85.9055 main 363 363 P_____________ AL131970 25.9067 -85.9055 TS 40 1006 0 15 311
1970255N25283 1970 113 NA GM FELICE 1970-09-15 00:00:00 TS 26.4000 -86.6000 45 1005 hurdat_atl main 380 296 O_____________ hurdat_atl AL131970 26.4000 -86.6000 TS 45 1005 0 17 303
1970255N25283 1970 113 NA GM FELICE 1970-09-15 03:00:00 TS 26.8151 -87.4631 main 291 215 P_____________ AL131970 26.8151 -87.4631 TS 47 1002 0 18 296
1970255N25283 1970 113 NA GM FELICE 1970-09-15 06:00:00 TS 27.2000 -88.4000 50 1000 hurdat_atl main 212 156 O_____________ hurdat_atl AL131970 27.2000 -88.4000 TS 50 1000 0 18 296
1970255N25283 1970 113 NA GM FELICE 1970-09-15 09:00:00 TS 27.6066 -89.2856 main 157 122 P_____________ AL131970 27.6066 -89.2856 TS 52 999 0 18 297
1970255N25283 1970 113 NA GM FELICE 1970-09-15 12:00:00 TS 28.0000 -90.2000 55 998 hurdat_atl main 122 89 O_____________ hurdat_atl AL131970 28.0000 -90.2000 TS 55 998 0 19 294
1970255N25283 1970 113 NA GM FELICE 1970-09-15 15:00:00 TS 28.3649 -91.2003 main 83 83 P_____________ AL131970 28.3649 -91.2003 TS 57 994 0 19 292
1970255N25283 1970 113 NA GM FELICE 1970-09-15 18:00:00 TS 28.7000 -92.2000 60 990 hurdat_atl main 89 77 O_____________ hurdat_atl AL131970 28.7000 -92.2000 TS 60 990 0 18 291
1970255N25283 1970 113 NA GM FELICE 1970-09-15 21:00:00 TS 29.0061 -93.1483 main 80 44 P_____________ AL131970 29.0061 -93.1483 TS 60 992 0 17 291
1970255N25283 1970 113 NA GM FELICE 1970-09-16 00:00:00 TS 29.3000 -94.0000 60 994 hurdat_atl main 44 9 O_____________ hurdat_atl AL131970 29.3000 -94.0000 TS 60 994 0 15 293
1970255N25283 1970 113 NA GM FELICE 1970-09-16 02:00:00 TS 29.5000 -94.5000 60 994 hurdat_atl main 9 0 O_____________ hurdat_atl AL131970 29.5000 -94.5000 L TS 60 994 0 15 294
1970255N25283 1970 113 NA GM FELICE 1970-09-16 03:00:00 TS 29.5983 -94.7608 main 9 0 P_____________ AL131970 29.5983 -94.7608 TS 55 0 14 295
1970255N25283 1970 113 NA NA FELICE 1970-09-16 06:00:00 TS 29.9000 -95.5000 40 hurdat_atl main 0 0 O_____________ hurdat_atl AL131970 29.9000 -95.5000 TS 40 0 13 300
1970255N25283 1970 113 NA NA FELICE 1970-09-16 09:00:00 TS 30.2333 -96.0264 main 0 0 P_____________ AL131970 30.2333 -96.0264 TS 35 0 10 312
1970255N25283 1970 113 NA NA FELICE 1970-09-16 12:00:00 TS 30.6000 -96.4000 30 hurdat_atl main 0 0 O_____________ hurdat_atl AL131970 30.6000 -96.4000 TD 30 -1 10 321
1970255N25283 1970 113 NA NA FELICE 1970-09-16 15:00:00 TS 30.9923 -96.7303 main 0 0 P_____________ AL131970 30.9923 -96.7303 TD 30 -1 10 327
1970255N25283 1970 113 NA NA FELICE 1970-09-16 18:00:00 TS 31.4000 -97.0000 30 1003 hurdat_atl main 0 0 O_____________ hurdat_atl AL131970 31.4000 -97.0000 TD 30 1003 -1 9 330
1970255N25283 1970 113 NA NA FELICE 1970-09-16 21:00:00 TS 31.8000 -97.2874 main 0 0 P_____________ AL131970 31.8000 -97.2874 TD 30 1002 -1 9 332
1970255N25283 1970 113 NA NA FELICE 1970-09-17 00:00:00 TS 32.2000 -97.5000 30 1001 hurdat_atl main 0 0 O_____________ hurdat_atl AL131970 32.2000 -97.5000 TD 30 1001 -1 9 341
1970255N25283 1970 113 NA NA FELICE 1970-09-17 03:00:00 TS 32.6149 -97.6175 main 0 0 P_____________ AL131970 32.6149 -97.6175 TD 27 -1 8 354
1970255N25283 1970 113 NA NA FELICE 1970-09-17 06:00:00 TS 33.0000 -97.6000 25 hurdat_atl main 0 0 O_____________ hurdat_atl AL131970 33.0000 -97.6000 TD 25 -1 7 11
1970255N25283 1970 113 NA NA FELICE 1970-09-17 09:00:00 TS 33.3149 -97.4600 main 0 0 P_____________ AL131970 33.3149 -97.4600 TD 25 -1 7 29
1970255N25283 1970 113 NA NA FELICE 1970-09-17 12:00:00 TS 33.6000 -97.2000 25 hurdat_atl main 0 0 O_____________ hurdat_atl AL131970 33.6000 -97.2000 TD 25 -1 8 39
1970255N25283 1970 113 NA NA FELICE 1970-09-17 15:00:00 TS 33.9075 -96.8800 main 0 0 P_____________ AL131970 33.9075 -96.8800 TD 27 -1 8 44
1970255N25283 1970 113 NA NA FELICE 1970-09-17 18:00:00 TS 34.2000 -96.5000 30 hurdat_atl main 0 0 O_____________ hurdat_atl AL131970 34.2000 -96.5000 TD 30 -1 8 47
1970255N25283 1970 113 NA NA FELICE 1970-09-17 21:00:00 TS 34.4721 -96.1373 main 0 0 P_____________ AL131970 34.4721 -96.1373 TD 30 -1 8 53
1970255N25283 1970 113 NA NA FELICE 1970-09-18 00:00:00 TS 34.7000 -95.7000 30 hurdat_atl main 0 0 O_____________ hurdat_atl AL131970 34.7000 -95.7000 TD 30 -1 9 64
1970255N25283 1970 113 NA NA FELICE 1970-09-18 03:00:00 TS 34.8726 -95.1299 main 0 0 P_____________ AL131970 34.8726 -95.1299 TD 27 -1 10 73
1970255N25283 1970 113 NA NA FELICE 1970-09-18 06:00:00 ET 35.0000 -94.5000 25 hurdat_atl main 0 0 O_____________ hurdat_atl AL131970 35.0000 -94.5000 EX 25 -4 10 77
1970255N25283 1970 113 NA NA FELICE 1970-09-18 09:00:00 ET 35.1149 -93.8849 main 0 0 P_____________ AL131970 35.1149 -93.8849 EX 25 -4 10 78
1970255N25283 1970 113 NA NA FELICE 1970-09-18 12:00:00 ET 35.2000 -93.3000 25 hurdat_atl main 0 0 O_____________ hurdat_atl AL131970 35.2000 -93.3000 EX 25 -4 9 81
1970255N25283 1970 113 NA NA FELICE 1970-09-18 15:00:00 ET 35.2496 -92.7846 main 0 0 P_____________ AL131970 35.2496 -92.7846 EX 22 -4 8 83
1970255N25283 1970 113 NA NA FELICE 1970-09-18 18:00:00 ET 35.3000 -92.3000 20 hurdat_atl main 0 0 O_____________ hurdat_atl AL131970 35.3000 -92.3000 EX 20 -4 8 79
1970255N25283 1970 113 NA NA FELICE 1970-09-18 21:00:00 ET 35.4074 -91.7928 main 0 0 P_____________ AL131970 35.4074 -91.7928 EX 20 -4 8 76
1970255N25283 1970 113 NA NA FELICE 1970-09-19 00:00:00 ET 35.5000 -91.3000 20 hurdat_atl main 0 0 O_____________ hurdat_atl AL131970 35.5000 -91.3000 EX 20 -4 8 84
1970255N25283 1970 113 NA NA FELICE 1970-09-19 03:00:00 ET 35.4925 -90.8195 main 0 0 P_____________ AL131970 35.4925 -90.8195 EX 17 -4 7 90
1970255N25283 1970 113 NA NA FELICE 1970-09-19 06:00:00 ET 35.5000 -90.4000 15 hurdat_atl main 0 0 O_____________ hurdat_atl AL131970 35.5000 -90.4000 EX 15 -4 6 78
1970255N25283 1970 113 NA NA FELICE 1970-09-19 09:00:00 ET 35.6197 -90.0775 main 0 0 P_____________ AL131970 35.6197 -90.0775 EX 15 -4 6 58
1970255N25283 1970 113 NA NA FELICE 1970-09-19 12:00:00 ET 35.8000 -89.8000 15 hurdat_atl main 0 0 O_____________ hurdat_atl AL131970 35.8000 -89.8000 EX 15 -4 6 51
1970255N25283 1970 113 NA NA FELICE 1970-09-19 15:00:00 ET 35.9977 -89.5078 main 0 0 P_____________ AL131970 35.9977 -89.5078 EX 15 -4 6 51
1970255N25283 1970 113 NA NA FELICE 1970-09-19 18:00:00 ET 36.2000 -89.2000 15 hurdat_atl main 0 O_____________ hurdat_atl AL131970 36.2000 -89.2000 EX 15 -4 6 51

About IBTrACS Database

This database is a web-friendly format of International Best Track Archive for Climate Stewardship (IBTrACS), a global best track data archive curated by NOAA dating back to 1842.

Updated: 2022-11-16